Time;durP1;ratioP1;P1;durP2;ratioP2;P2;SDS_P1;SDS_P2;PMS_P1;PMS_P2;Temp;Humidity;BMP_temperature;BMP_pressure;BME280_temperature;BME280_humidity;BME280_pressure;Samples;Min_cycle;Max_cycle;Signal;HPM_P1;HPM_P2
2023/09/23 00:01:15;;;;;;;4.07;2.35;;;12.50;99.90;;;;;;5093751;28;20040;-69
2023/09/23 00:03:44;;;;;;;4.97;2.03;;;12.50;99.90;;;;;;5091643;28;20040;-69
2023/09/23 00:06:11;;;;;;;3.47;2.30;;;12.50;99.90;;;;;;5093286;28;20065;-69
2023/09/23 00:08:39;;;;;;;4.82;2.20;;;12.50;99.90;;;;;;5112056;28;20044;-69
2023/09/23 00:11:08;;;;;;;3.65;2.33;;;12.50;99.90;;;;;;5093692;28;20048;-69
2023/09/23 00:13:35;;;;;;;3.53;2.17;;;12.50;99.90;;;;;;5111185;28;20155;-69
2023/09/23 00:16:09;;;;;;;5.68;2.03;;;12.40;99.90;;;;;;5111486;28;20043;-69
2023/09/23 00:18:36;;;;;;;4.00;2.25;;;12.40;99.90;;;;;;5093465;28;20054;-69
2023/09/23 00:21:05;;;;;;;7.47;2.30;;;12.40;99.90;;;;;;5111136;28;20044;-69
2023/09/23 00:23:32;;;;;;;3.65;2.22;;;12.40;99.90;;;;;;5093842;28;20113;-69
2023/09/23 00:26:00;;;;;;;4.97;2.10;;;12.30;99.90;;;;;;5093633;28;20044;-69
2023/09/23 00:28:30;;;;;;;4.45;2.50;;;12.40;99.90;;;;;;5091680;28;20495;-68
2023/09/23 00:31:05;;;;;;;3.33;1.87;;;12.30;99.90;;;;;;5097153;28;20052;-69
2023/09/23 00:33:37;;;;;;;4.95;2.53;;;12.30;99.90;;;;;;5097302;28;20289;-69
2023/09/23 00:36:07;;;;;;;4.47;2.30;;;12.30;99.90;;;;;;5097302;28;20071;-68
2023/09/23 00:38:34;;;;;;;2.42;1.65;;;12.30;99.90;;;;;;5095563;28;20056;-69
2023/09/23 00:41:01;;;;;;;3.13;1.50;;;12.20;99.90;;;;;;5096366;28;20051;-68
2023/09/23 00:43:28;;;;;;;2.67;1.60;;;12.20;99.90;;;;;;5096878;28;20047;-68
2023/09/23 00:45:55;;;;;;;2.85;1.30;;;12.20;99.90;;;;;;5096913;28;20104;-68
2023/09/23 00:48:23;;;;;;;3.45;1.20;;;12.20;99.90;;;;;;5114550;28;20044;-68
2023/09/23 00:50:53;;;;;;;2.10;1.20;;;12.20;99.90;;;;;;5094766;28;20505;-69
2023/09/23 00:53:21;;;;;;;1.70;1.05;;;12.20;99.90;;;;;;5096895;28;20079;-68
2023/09/23 00:55:54;;;;;;;2.10;1.10;;;12.10;99.90;;;;;;5096032;28;20039;-69
2023/09/23 00:58:22;;;;;;;2.75;1.25;;;12.10;99.90;;;;;;5115161;28;20083;-68
2023/09/23 01:00:49;;;;;;;2.58;1.02;;;12.10;99.90;;;;;;5114786;28;20142;-68
2023/09/23 01:03:16;;;;;;;2.17;0.80;;;12.10;99.90;;;;;;5095927;28;20067;-68
2023/09/23 01:05:44;;;;;;;2.75;1.17;;;12.10;99.90;;;;;;5096423;28;20047;-69
2023/09/23 01:08:13;;;;;;;2.05;0.98;;;12.00;99.90;;;;;;5096756;28;20102;-69
2023/09/23 01:10:40;;;;;;;1.55;0.88;;;11.90;99.90;;;;;;5094088;28;20104;-69
2023/09/23 01:13:16;;;;;;;1.63;0.80;;;12.00;99.90;;;;;;5114572;28;20096;-66
2023/09/23 01:15:43;;;;;;;1.67;0.80;;;12.00;99.90;;;;;;5096586;28;20047;-67
2023/09/23 01:18:13;;;;;;;3.40;1.00;;;12.00;99.90;;;;;;5093588;28;20039;-68
2023/09/23 01:20:41;;;;;;;6.35;1.17;;;12.00;99.90;;;;;;5096028;28;20058;-67
2023/09/23 01:23:10;;;;;;;2.58;1.13;;;12.00;99.90;;;;;;5095918;28;20532;-68
2023/09/23 01:25:37;;;;;;;3.35;1.02;;;12.00;99.90;;;;;;5096280;28;20045;-67
2023/09/23 01:28:08;;;;;;;2.25;1.00;;;12.00;99.90;;;;;;5096282;28;20681;-68
2023/09/23 01:30:35;;;;;;;5.30;1.30;;;12.00;99.90;;;;;;5095637;28;20044;-68
2023/09/23 01:33:05;;;;;;;2.40;1.17;;;12.00;99.90;;;;;;5093969;28;20130;-68
2023/09/23 01:35:32;;;;;;;4.65;1.10;;;12.00;99.90;;;;;;5095203;28;20052;-68
2023/09/23 01:37:59;;;;;;;3.92;1.50;;;12.00;99.90;;;;;;5095730;28;20116;-69
2023/09/23 01:40:29;;;;;;;1.73;0.93;;;11.90;99.90;;;;;;5095041;28;20047;-68
2023/09/23 01:42:57;;;;;;;3.58;1.20;;;11.90;99.90;;;;;;5114249;28;20043;-68
2023/09/23 01:45:25;;;;;;;2.70;1.17;;;11.90;99.90;;;;;;5095409;28;20059;-68
2023/09/23 01:47:56;;;;;;;2.67;1.25;;;11.90;99.90;;;;;;5113920;28;20071;-69
2023/09/23 01:50:24;;;;;;;2.25;1.10;;;11.80;99.90;;;;;;5095842;28;20152;-67
2023/09/23 01:52:51;;;;;;;3.42;1.13;;;11.80;99.90;;;;;;5095283;28;20051;-67
2023/09/23 01:55:18;;;;;;;4.63;1.70;;;11.80;99.90;;;;;;5113941;28;20062;-67
2023/09/23 01:57:48;;;;;;;3.22;1.00;;;11.80;99.90;;;;;;5095339;28;20052;-68
2023/09/23 02:00:22;;;;;;;4.43;1.48;;;11.80;99.90;;;;;;5094958;28;20493;-67
2023/09/23 02:02:49;;;;;;;1.80;1.00;;;11.80;99.90;;;;;;5095584;28;20061;-67
2023/09/23 02:05:18;;;;;;;2.95;1.20;;;11.70;99.90;;;;;;5090372;28;20051;-68
2023/09/23 02:07:47;;;;;;;2.00;1.15;;;11.80;99.90;;;;;;5094721;28;20053;-68
2023/09/23 02:10:15;;;;;;;2.90;1.15;;;11.70;99.90;;;;;;5091277;28;20040;-69
2023/09/23 02:12:42;;;;;;;4.65;1.30;;;11.70;99.90;;;;;;5094356;28;20087;-68
2023/09/23 02:15:15;;;;;;;4.68;1.55;;;11.60;99.90;;;;;;5095475;28;20051;-68
2023/09/23 02:17:42;;;;;;;4.47;1.50;;;11.70;99.90;;;;;;5095419;28;20097;-68
2023/09/23 02:20:17;;;;;;;2.70;1.52;;;11.60;99.90;;;;;;5094546;28;20452;-68
2023/09/23 02:22:45;;;;;;;4.82;1.50;;;11.60;99.90;;;;;;5112488;28;20044;-68
2023/09/23 02:25:13;;;;;;;3.25;1.40;;;11.60;99.90;;;;;;5093167;28;20519;-68
2023/09/23 02:27:40;;;;;;;6.05;1.60;;;11.50;99.90;;;;;;5094372;28;21282;-68
2023/09/23 02:30:10;;;;;;;3.08;1.85;;;11.50;99.90;;;;;;5095107;28;20047;-68
2023/09/23 02:32:41;;;;;;;3.42;1.83;;;11.40;99.90;;;;;;5094869;28;20050;-68
2023/09/23 02:35:10;;;;;;;3.55;1.70;;;11.40;99.90;;;;;;5094244;28;20078;-68
2023/09/23 02:37:38;;;;;;;4.93;2.10;;;11.40;99.90;;;;;;5093556;28;20052;-67
2023/09/23 02:40:11;;;;;;;4.40;2.67;;;11.40;99.90;;;;;;5094625;28;20058;-68
2023/09/23 02:42:40;;;;;;;3.70;2.38;;;11.30;99.90;;;;;;5094094;28;20062;-67
2023/09/23 02:45:10;;;;;;;5.70;3.03;;;11.30;99.90;;;;;;5095035;28;20047;-68
2023/09/23 02:47:37;;;;;;;4.40;2.72;;;11.30;99.90;;;;;;5092238;28;20126;-68
2023/09/23 02:50:09;;;;;;;6.03;3.25;;;11.30;99.90;;;;;;5094476;28;20066;-68
2023/09/23 02:52:37;;;;;;;5.22;3.65;;;11.30;99.90;;;;;;5092796;28;20495;-68
2023/09/23 02:55:07;;;;;;;7.40;4.65;;;11.30;99.90;;;;;;5094126;28;20548;-67
2023/09/23 02:57:35;;;;;;;8.82;5.43;;;11.20;99.90;;;;;;5093660;28;20058;-69
2023/09/23 03:00:13;;;;;;;7.63;5.20;;;11.20;99.90;;;;;;5092958;28;20101;-69
2023/09/23 03:02:45;;;;;;;9.38;6.00;;;11.20;99.90;;;;;;5111912;28;20116;-70
2023/09/23 03:05:16;;;;;;;7.80;5.90;;;11.20;99.90;;;;;;5092683;28;20040;-68
2023/09/23 03:07:43;;;;;;;7.68;5.80;;;11.20;99.90;;;;;;5094468;28;20096;-69
2023/09/23 03:10:13;;;;;;;10.10;6.57;;;11.20;99.90;;;;;;5092864;28;20054;-68
2023/09/23 03:12:43;;;;;;;9.65;7.15;;;11.20;99.90;;;;;;5094395;28;20051;-69
2023/09/23 03:15:15;;;;;;;9.43;6.38;;;11.20;99.90;;;;;;5094513;28;20075;-69
2023/09/23 03:17:50;;;;;;;10.02;6.95;;;11.20;99.90;;;;;;5093690;28;20105;-69
2023/09/23 03:20:21;;;;;;;10.25;6.68;;;11.20;99.90;;;;;;5094290;28;20407;-69
2023/09/23 03:22:49;;;;;;;9.75;6.97;;;11.10;99.90;;;;;;5092362;28;20048;-68
2023/09/23 03:25:20;;;;;;;10.23;7.57;;;11.10;99.90;;;;;;5092400;28;20567;-68
2023/09/23 03:27:48;;;;;;;10.48;7.07;;;11.10;99.90;;;;;;5094096;28;20051;-68
2023/09/23 03:30:16;;;;;;;10.45;7.38;;;11.10;99.90;;;;;;5111536;28;20051;-69
2023/09/23 03:32:45;;;;;;;11.77;7.88;;;11.00;99.90;;;;;;5094099;28;20348;-69
2023/09/23 03:35:17;;;;;;;10.75;7.65;;;11.00;99.90;;;;;;5112190;28;20478;-68
2023/09/23 03:37:48;;;;;;;10.38;6.95;;;11.00;99.90;;;;;;5093310;28;20048;-69
2023/09/23 03:40:19;;;;;;;11.43;7.72;;;10.90;99.90;;;;;;5092639;28;20429;-69
2023/09/23 03:42:47;;;;;;;11.57;7.82;;;10.90;99.90;;;;;;5091645;28;20040;-68
2023/09/23 03:45:15;;;;;;;11.27;8.25;;;10.90;99.90;;;;;;5093316;28;20101;-68
2023/09/23 03:47:41;;;;;;;18.73;7.88;;;10.80;99.90;;;;;;5092250;28;20499;-68
2023/09/23 03:50:10;;;;;;;10.48;8.05;;;10.80;99.90;;;;;;5093899;28;20445;-69
2023/09/23 03:52:38;;;;;;;10.38;7.60;;;10.80;99.90;;;;;;5093162;28;20078;-68
2023/09/23 03:55:06;;;;;;;12.55;8.77;;;10.70;99.90;;;;;;5093878;28;20069;-69
2023/09/23 03:57:33;;;;;;;11.57;7.97;;;10.70;99.90;;;;;;5092619;28;20496;-69
2023/09/23 03:59:59;;;;;;;13.63;8.15;;;10.70;99.90;;;;;;5093293;28;20047;-69
2023/09/23 04:02:26;;;;;;;11.10;7.97;;;10.60;99.90;;;;;;5093427;28;20544;-69
2023/09/23 04:04:53;;;;;;;11.88;8.90;;;10.60;99.90;;;;;;5092151;28;20404;-68
2023/09/23 04:07:22;;;;;;;11.23;8.18;;;10.60;99.90;;;;;;5115699;28;20475;-68
2023/09/23 04:09:49;;;;;;;9.98;7.32;;;10.60;99.90;;;;;;5097859;28;20444;-68
2023/09/23 04:12:17;;;;;;;10.02;7.57;;;10.60;99.90;;;;;;5097061;28;20427;-67
2023/09/23 04:14:44;;;;;;;11.70;7.40;;;10.60;99.90;;;;;;5096093;28;20122;-67
2023/09/23 04:17:11;;;;;;;13.40;7.60;;;10.50;99.90;;;;;;5097478;28;20067;-69
2023/09/23 04:19:38;;;;;;;12.00;7.55;;;10.60;99.90;;;;;;5097173;28;20039;-69
2023/09/23 04:22:05;;;;;;;11.80;8.18;;;10.60;99.90;;;;;;5096961;28;20096;-68
2023/09/23 04:24:34;;;;;;;13.13;8.07;;;10.50;99.90;;;;;;5097247;28;20448;-68
2023/09/23 04:27:00;;;;;;;11.07;7.43;;;10.60;99.90;;;;;;5096918;28;20445;-68
2023/09/23 04:29:30;;;;;;;12.27;8.95;;;10.50;99.90;;;;;;5097285;28;20052;-70
2023/09/23 04:31:57;;;;;;;15.50;8.73;;;10.50;99.90;;;;;;5097326;28;20075;-69
2023/09/23 04:34:25;;;;;;;12.77;8.60;;;10.50;99.90;;;;;;5096798;28;20461;-70
2023/09/23 04:36:52;;;;;;;9.68;8.07;;;10.50;99.90;;;;;;5096956;28;20505;-70
2023/09/23 04:39:19;;;;;;;11.63;8.00;;;10.50;99.90;;;;;;5096795;28;20407;-70
2023/09/23 04:41:47;;;;;;;11.57;8.13;;;10.50;99.90;;;;;;5114728;28;20044;-70
2023/09/23 04:44:14;;;;;;;13.07;7.90;;;10.50;99.90;;;;;;5092507;28;20040;-68
2023/09/23 04:46:44;;;;;;;11.55;7.72;;;10.50;99.90;;;;;;5096885;28;20067;-71
2023/09/23 04:49:11;;;;;;;9.38;7.60;;;10.50;99.90;;;;;;5096416;28;20472;-68
2023/09/23 04:51:38;;;;;;;9.18;7.13;;;10.50;99.90;;;;;;5096984;28;20071;-68
2023/09/23 04:54:05;;;;;;;11.35;7.63;;;10.60;99.90;;;;;;5096266;28;20050;-68
2023/09/23 04:56:33;;;;;;;10.25;6.85;;;10.60;99.90;;;;;;5096204;28;20070;-68
2023/09/23 04:59:02;;;;;;;9.98;6.90;;;10.60;99.90;;;;;;5094989;28;20093;-68
2023/09/23 05:01:29;;;;;;;12.48;7.20;;;10.60;99.90;;;;;;5095954;28;20044;-69
2023/09/23 05:03:59;;;;;;;9.80;6.75;;;10.60;99.90;;;;;;5096326;28;20051;-68
2023/09/23 05:06:26;;;;;;;8.85;6.40;;;10.60;99.90;;;;;;5096915;28;20661;-69
2023/09/23 05:08:55;;;;;;;12.13;6.45;;;10.60;99.90;;;;;;5095994;28;20056;-70
2023/09/23 05:11:23;;;;;;;9.95;6.68;;;10.60;99.90;;;;;;5096523;28;20487;-69
2023/09/23 05:13:50;;;;;;;9.65;6.53;;;10.60;99.90;;;;;;5096169;28;20505;-69
2023/09/23 05:16:18;;;;;;;8.40;6.60;;;10.60;99.90;;;;;;5094813;28;20055;-68
2023/09/23 05:18:48;;;;;;;10.85;7.07;;;10.60;99.90;;;;;;5096096;28;20047;-68
2023/09/23 05:21:18;;;;;;;7.63;6.23;;;10.60;99.90;;;;;;5096027;28;20478;-68
2023/09/23 05:23:48;;;;;;;10.57;7.35;;;10.60;99.90;;;;;;5095630;28;20043;-70
2023/09/23 05:26:16;;;;;;;8.25;6.07;;;10.60;99.90;;;;;;5096248;28;20388;-69
2023/09/23 05:28:43;;;;;;;9.60;6.78;;;10.60;99.90;;;;;;5095863;28;20103;-70
2023/09/23 05:31:13;;;;;;;8.95;6.55;;;10.60;99.90;;;;;;5093675;28;20491;-70
2023/09/23 05:33:42;;;;;;;10.40;6.18;;;10.50;99.90;;;;;;5095674;28;20130;-70
2023/09/23 05:36:10;;;;;;;9.63;6.47;;;10.50;99.90;;;;;;5095736;28;20078;-71
2023/09/23 05:38:37;;;;;;;10.30;6.78;;;10.50;99.90;;;;;;5113944;28;20048;-71
2023/09/23 05:41:04;;;;;;;10.80;7.15;;;10.50;99.90;;;;;;5096145;28;20136;-71
2023/09/23 05:43:31;;;;;;;9.57;7.40;;;10.50;99.90;;;;;;5094922;28;20047;-68
2023/09/23 05:45:58;;;;;;;11.70;7.43;;;10.50;99.90;;;;;;5112770;28;20040;-68
2023/09/23 05:48:25;;;;;;;11.60;7.38;;;10.40;99.90;;;;;;5091117;28;20602;-68
2023/09/23 05:51:03;;;;;;;9.68;7.32;;;10.40;99.90;;;;;;5095395;28;20055;-68
2023/09/23 05:53:30;;;;;;;10.82;7.60;;;10.50;99.90;;;;;;5094715;28;20126;-68
2023/09/23 05:55:57;;;;;;;10.35;7.35;;;10.40;99.90;;;;;;5095628;28;20055;-68
2023/09/23 05:58:24;;;;;;;12.13;7.35;;;10.40;99.90;;;;;;5113068;28;20050;-68
2023/09/23 06:00:51;;;;;;;10.18;7.80;;;10.40;99.90;;;;;;5095696;28;20135;-68
2023/09/23 06:03:18;;;;;;;11.25;7.22;;;10.50;99.90;;;;;;5095072;28;20055;-68
2023/09/23 06:05:45;;;;;;;12.25;8.25;;;10.50;99.90;;;;;;5113213;28;20047;-68
2023/09/23 06:08:14;;;;;;;11.45;8.00;;;10.50;99.90;;;;;;5113457;28;20048;-69
2023/09/23 06:10:41;;;;;;;9.85;8.18;;;10.50;99.90;;;;;;5095199;28;20048;-69
2023/09/23 06:13:08;;;;;;;15.05;8.90;;;10.60;99.90;;;;;;5092590;28;20502;-68
2023/09/23 06:15:35;;;;;;;13.02;9.27;;;10.60;99.90;;;;;;5094228;28;20047;-69
2023/09/23 06:18:02;;;;;;;12.48;9.38;;;10.70;99.90;;;;;;5091039;28;20040;-68
2023/09/23 06:20:29;;;;;;;11.98;9.25;;;10.80;99.90;;;;;;5094777;28;20544;-69
2023/09/23 06:22:56;;;;;;;12.32;9.50;;;10.80;99.90;;;;;;5092779;28;20036;-68
2023/09/23 06:25:24;;;;;;;11.98;8.98;;;10.90;99.90;;;;;;5094604;28;20453;-69
2023/09/23 06:27:51;;;;;;;14.27;9.05;;;11.00;99.90;;;;;;5093121;28;20051;-68
2023/09/23 06:30:18;;;;;;;12.18;8.50;;;11.20;99.90;;;;;;5094974;28;20384;-68
2023/09/23 06:32:47;;;;;;;11.05;8.80;;;11.30;99.90;;;;;;5093179;28;20050;-68
2023/09/23 06:35:14;;;;;;;13.50;10.23;;;11.40;99.90;;;;;;5094592;28;20052;-69
2023/09/23 06:37:41;;;;;;;14.93;10.23;;;11.60;99.90;;;;;;5093578;28;20169;-69
2023/09/23 06:40:08;;;;;;;15.95;9.65;;;11.70;99.90;;;;;;5094282;28;20055;-67
2023/09/23 06:42:36;;;;;;;12.32;9.63;;;11.80;99.90;;;;;;5094841;28;20050;-69
2023/09/23 06:45:06;;;;;;;13.07;10.00;;;12.00;99.90;;;;;;5092705;28;20048;-69
2023/09/23 06:47:33;;;;;;;12.82;10.20;;;12.10;99.90;;;;;;5093608;28;20517;-68
2023/09/23 06:49:59;;;;;;;14.43;10.38;;;12.20;99.90;;;;;;5094699;28;20058;-69
2023/09/23 06:52:26;;;;;;;13.52;9.63;;;12.20;99.90;;;;;;5094626;28;20051;-69
2023/09/23 06:54:53;;;;;;;14.68;10.50;;;12.20;99.90;;;;;;5094111;28;20063;-69
2023/09/23 06:57:20;;;;;;;13.10;10.40;;;12.20;99.90;;;;;;5093627;28;20120;-68
2023/09/23 06:59:49;;;;;;;17.33;11.82;;;12.20;99.90;;;;;;5092698;28;20105;-69
2023/09/23 07:02:16;;;;;;;17.88;11.57;;;12.20;99.90;;;;;;5093202;28;20059;-69
2023/09/23 07:04:43;;;;;;;15.85;11.15;;;12.30;99.90;;;;;;5112329;28;20048;-69
2023/09/23 07:07:10;;;;;;;16.13;10.55;;;12.40;99.90;;;;;;5094007;28;20047;-68
2023/09/23 07:09:37;;;;;;;16.17;11.07;;;12.50;99.90;;;;;;5093776;28;20052;-73
2023/09/23 07:12:04;;;;;;;14.02;10.82;;;12.60;99.90;;;;;;5094431;28;20044;-70
2023/09/23 07:14:31;;;;;;;13.77;10.63;;;12.60;99.90;;;;;;5094184;28;20062;-69
2023/09/23 07:17:00;;;;;;;11.77;10.20;;;12.70;99.90;;;;;;5093440;28;20093;-71
2023/09/23 07:19:27;;;;;;;16.80;10.50;;;12.70;99.90;;;;;;5093999;28;20059;-71
2023/09/23 07:21:54;;;;;;;17.70;10.95;;;12.70;99.90;;;;;;5111708;28;20051;-69
2023/09/23 07:24:20;;;;;;;14.57;9.88;;;12.80;99.90;;;;;;5093929;28;20047;-67
2023/09/23 07:26:47;;;;;;;13.57;9.45;;;13.20;99.90;;;;;;5094053;28;20055;-69
2023/09/23 07:29:15;;;;;;;12.55;9.43;;;14.00;99.90;;;;;;5093365;28;20522;-69
2023/09/23 07:31:41;;;;;;;10.98;8.07;;;14.60;99.90;;;;;;5094210;28;20048;-68
2023/09/23 07:34:10;;;;;;;10.82;8.70;;;15.20;99.90;;;;;;5094060;28;20100;-68
2023/09/23 07:36:37;;;;;;;11.77;8.95;;;15.80;99.90;;;;;;5109592;28;20043;-68
2023/09/23 07:39:04;;;;;;;11.88;8.35;;;16.00;99.90;;;;;;5095986;28;20047;-69
2023/09/23 07:41:31;;;;;;;10.90;7.72;;;16.20;99.90;;;;;;5116522;28;20044;-69
2023/09/23 07:43:58;;;;;;;10.82;7.90;;;16.20;99.90;;;;;;5097308;28;20054;-68
2023/09/23 07:46:25;;;;;;;9.98;8.02;;;16.30;99.90;;;;;;5116264;28;20406;-68
2023/09/23 07:48:52;;;;;;;11.48;7.50;;;16.30;99.90;;;;;;5098071;28;20055;-70
2023/09/23 07:51:20;;;;;;;10.35;7.47;;;16.70;99.90;;;;;;5085488;28;20546;-69
2023/09/23 07:53:47;;;;;;;12.05;7.60;;;17.30;99.90;;;;;;5093416;28;20062;-69
2023/09/23 07:56:14;;;;;;;11.02;7.43;;;17.40;99.90;;;;;;5090826;28;20055;-69
2023/09/23 07:58:41;;;;;;;8.95;7.18;;;17.20;99.90;;;;;;5089209;28;20047;-69
2023/09/23 08:01:08;;;;;;;10.73;7.10;;;16.90;99.90;;;;;;5093721;28;20047;-69
2023/09/23 08:03:35;;;;;;;9.60;7.50;;;16.80;99.90;;;;;;5095690;28;20495;-69
2023/09/23 08:06:02;;;;;;;8.43;6.82;;;16.50;99.90;;;;;;5093930;28;20089;-69
2023/09/23 08:08:30;;;;;;;10.63;7.60;;;16.40;99.90;;;;;;5093908;28;20514;-70
2023/09/23 08:10:57;;;;;;;10.32;6.85;;;16.20;99.90;;;;;;5114642;28;20051;-69
2023/09/23 08:13:26;;;;;;;12.35;7.30;;;16.00;99.90;;;;;;5094145;28;20495;-70
2023/09/23 08:15:58;;;;;;;9.10;6.72;;;15.90;99.90;;;;;;5092364;28;20056;-71
2023/09/23 08:18:25;;;;;;;10.38;7.20;;;15.80;99.90;;;;;;5092226;28;20064;-69
2023/09/23 08:20:57;;;;;;;8.60;6.82;;;15.70;99.90;;;;;;5095305;28;20051;-70
2023/09/23 08:23:24;;;;;;;10.10;6.90;;;15.70;99.90;;;;;;5092838;28;20047;-73
2023/09/23 08:25:52;;;;;;;9.63;6.70;;;15.60;99.90;;;;;;5096172;28;20078;-70
2023/09/23 08:28:19;;;;;;;8.98;5.97;;;15.70;99.90;;;;;;5112691;28;20503;-70
2023/09/23 08:30:48;;;;;;;10.30;6.18;;;15.80;99.90;;;;;;5115074;28;20449;-70
2023/09/23 08:33:14;;;;;;;8.02;5.95;;;15.80;99.90;;;;;;5093555;28;20043;-70
2023/09/23 08:35:42;;;;;;;8.20;5.80;;;15.80;99.90;;;;;;5095028;28;20055;-70
2023/09/23 08:38:09;;;;;;;9.65;5.65;;;16.70;99.90;;;;;;5093836;28;20047;-70
2023/09/23 08:40:39;;;;;;;7.57;5.32;;;17.50;99.90;;;;;;5095656;28;20502;-70
2023/09/23 08:43:07;;;;;;;7.72;4.65;;;18.50;99.90;;;;;;5092888;28;20489;-70
2023/09/23 08:45:40;;;;;;;7.07;4.90;;;19.80;99.90;;;;;;5101238;28;20056;-71
2023/09/23 08:48:08;;;;;;;7.47;4.85;;;20.90;99.90;;;;;;5098314;28;20051;-70
2023/09/23 08:50:37;;;;;;;6.10;3.97;;;21.80;99.90;;;;;;5099390;28;20056;-70
2023/09/23 08:53:06;;;;;;;4.63;3.55;;;22.60;99.90;;;;;;5096866;28;20047;-71
2023/09/23 08:55:34;;;;;;;8.40;4.65;;;23.10;99.90;;;;;;5094061;28;20105;-71
2023/09/23 08:58:03;;;;;;;5.57;4.10;;;23.20;99.90;;;;;;5111879;28;20052;-70
2023/09/23 09:00:32;;;;;;;5.60;4.05;;;22.60;99.90;;;;;;5092559;28;20491;-71
2023/09/23 09:02:59;;;;;;;7.15;3.45;;;22.50;99.90;;;;;;5099814;28;20046;-70
2023/09/23 09:05:37;;;;;;;4.88;3.30;;;22.70;99.90;;;;;;5097026;28;20977;-70
2023/09/23 09:08:05;;;;;;;5.88;3.72;;;23.30;99.90;;;;;;5098860;28;20039;-71
2023/09/23 09:10:32;;;;;;;4.57;3.38;;;23.80;99.90;;;;;;5087068;28;20051;-70
2023/09/23 09:13:02;;;;;;;5.55;2.85;;;24.40;99.90;;;;;;5091311;28;20039;-71
2023/09/23 09:15:28;;;;;;;5.60;3.73;;;24.20;99.90;;;;;;5087595;28;20055;-71
2023/09/23 09:17:59;;;;;;;4.15;2.72;;;23.90;99.90;;;;;;5093084;28;20309;-71
2023/09/23 09:20:26;;;;;;;;;;;23.70;99.90;;;;;;5091100;28;20451;-71
2023/09/23 09:22:53;;;;;;;4.78;3.30;;;23.30;99.90;;;;;;5092969;28;20367;-71
2023/09/23 09:25:20;;;;;;;5.95;3.25;;;23.60;99.90;;;;;;5089062;28;20051;-71
2023/09/23 09:27:47;;;;;;;5.07;3.00;;;24.00;99.90;;;;;;5090266;28;20560;-71
2023/09/23 09:30:14;;;;;;;6.70;3.28;;;24.20;99.90;;;;;;5092711;28;20506;-70
2023/09/23 09:32:43;;;;;;;5.25;3.17;;;24.80;99.90;;;;;;5090287;28;20051;-71
2023/09/23 09:35:14;;;;;;;4.45;2.88;;;24.80;99.90;;;;;;5110332;28;20073;-72
2023/09/23 09:37:44;;;;;;;5.03;2.83;;;25.80;99.90;;;;;;5091871;28;20052;-70
2023/09/23 09:40:15;;;;;;;;;;;25.30;98.70;;;;;;5111679;28;20088;-69
2023/09/23 09:42:47;;;;;;;3.83;2.17;;;25.30;98.40;;;;;;5089592;28;19927;-69
2023/09/23 09:45:19;;;;;;;4.75;1.83;;;25.80;98.90;;;;;;5094965;28;20047;-69
2023/09/23 09:47:47;;;;;;;4.55;2.35;;;25.20;99.30;;;;;;5086937;28;20075;-69
2023/09/23 09:50:16;;;;;;;6.03;2.20;;;24.50;99.90;;;;;;5091197;28;20055;-69
2023/09/23 09:52:45;;;;;;;2.97;1.73;;;24.30;99.90;;;;;;5093312;28;20112;-69
2023/09/23 09:55:18;;;;;;;3.47;1.50;;;25.00;99.30;;;;;;5090496;28;20050;-69
2023/09/23 09:57:45;;;;;;;2.35;1.27;;;24.90;99.30;;;;;;5089586;28;20143;-69
2023/09/23 10:00:23;;;;;;;4.40;1.60;;;25.40;98.50;;;;;;5089195;28;20044;-69
2023/09/23 10:02:56;;;;;;;2.65;1.30;;;25.70;97.00;;;;;;5089821;28;20043;-70
2023/09/23 10:05:32;;;;;;;3.42;1.40;;;25.70;97.40;;;;;;5088936;28;20043;-70
2023/09/23 10:07:59;;;;;;;7.55;1.42;;;25.40;96.90;;;;;;5091793;28;20054;-69
2023/09/23 10:10:31;;;;;;;5.20;1.70;;;24.80;98.50;;;;;;5090730;28;20150;-69
2023/09/23 10:13:06;;;;;;;5.10;1.52;;;24.30;97.80;;;;;;5089594;28;20491;-69
2023/09/23 10:15:37;;;;;;;6.93;2.85;;;24.10;99.30;;;;;;5088890;28;20052;-69
2023/09/23 10:18:09;;;;;;;4.75;1.52;;;23.30;99.10;;;;;;5108981;28;20488;-69
2023/09/23 10:20:41;;;;;;;3.83;1.60;;;22.60;99.90;;;;;;5091814;28;20055;-69
2023/09/23 10:23:10;;;;;;;3.45;1.40;;;21.80;99.90;;;;;;5090685;28;20124;-68
2023/09/23 10:25:42;;;;;;;3.83;1.27;;;21.20;99.90;;;;;;5108322;28;20047;-69
2023/09/23 10:28:20;;;;;;;6.15;1.80;;;20.70;99.90;;;;;;5089046;28;20116;-68
2023/09/23 10:30:57;;;;;;;6.18;1.73;;;20.00;99.90;;;;;;5108083;28;20419;-68
2023/09/23 10:33:26;;;;;;;3.78;1.75;;;19.70;99.90;;;;;;5090732;28;20105;-69
2023/09/23 10:35:56;;;;;;;4.97;2.00;;;19.10;99.90;;;;;;5092062;28;20707;-68
2023/09/23 10:38:24;;;;;;;4.53;2.00;;;18.50;99.90;;;;;;5089667;28;20059;-68
2023/09/23 10:40:52;;;;;;;3.70;1.98;;;18.10;99.90;;;;;;5088147;28;20051;-68
2023/09/23 10:43:20;;;;;;;3.83;1.77;;;17.70;99.90;;;;;;5086183;28;20075;-69
2023/09/23 10:45:48;;;;;;;4.43;2.33;;;17.80;99.90;;;;;;5107934;28;20044;-69
2023/09/23 10:48:16;;;;;;;4.45;2.30;;;19.00;99.90;;;;;;5105795;28;20127;-68
2023/09/23 10:50:44;;;;;;;6.38;2.47;;;20.70;99.90;;;;;;5091190;28;20054;-69
2023/09/23 10:53:14;;;;;;;5.18;2.33;;;21.90;99.90;;;;;;5085617;28;20040;-69
2023/09/23 10:55:41;;;;;;;5.97;2.47;;;21.40;99.90;;;;;;5107727;28;20039;-69
2023/09/23 10:58:08;;;;;;;7.78;2.58;;;20.80;99.90;;;;;;5089276;28;20043;-68
2023/09/23 11:00:36;;;;;;;5.45;2.70;;;20.00;99.90;;;;;;5107689;28;20055;-68
2023/09/23 11:03:08;;;;;;;6.68;2.90;;;19.20;99.90;;;;;;5086917;28;20051;-70
2023/09/23 11:05:37;;;;;;;6.07;3.20;;;18.40;99.90;;;;;;5091578;28;20062;-69
2023/09/23 11:08:06;;;;;;;5.68;2.60;;;17.70;99.90;;;;;;5089189;28;20052;-69
2023/09/23 11:10:34;;;;;;;8.60;3.13;;;17.20;99.90;;;;;;5090311;28;20130;-68
2023/09/23 11:13:04;;;;;;;4.60;2.53;;;17.00;99.90;;;;;;5089421;28;20047;-67
2023/09/23 11:15:32;;;;;;;5.65;2.92;;;16.80;99.90;;;;;;5109210;28;20406;-67
2023/09/23 11:17:59;;;;;;;4.07;2.80;;;16.80;99.90;;;;;;5091448;28;20058;-67
2023/09/23 11:20:30;;;;;;;8.82;3.45;;;16.80;99.90;;;;;;5093729;28;20058;-67
2023/09/23 11:23:03;;;;;;;5.18;3.20;;;16.90;99.90;;;;;;5093098;28;20103;-67
2023/09/23 11:25:30;;;;;;;4.88;2.67;;;17.00;99.90;;;;;;5092929;28;20055;-68
2023/09/23 11:28:02;;;;;;;6.55;2.45;;;17.10;99.90;;;;;;5091621;28;20054;-68
2023/09/23 11:30:29;;;;;;;10.70;3.00;;;17.10;99.90;;;;;;5094320;28;20048;-68
2023/09/23 11:32:57;;;;;;;5.22;2.70;;;17.00;99.90;;;;;;5094188;28;20074;-67
2023/09/23 11:35:24;;;;;;;5.90;2.60;;;16.90;99.90;;;;;;5111683;28;20108;-67
2023/09/23 11:37:53;;;;;;;5.80;3.10;;;16.70;99.90;;;;;;5093743;28;20043;-67
2023/09/23 11:40:20;;;;;;;10.27;3.85;;;16.60;99.90;;;;;;5094221;28;20063;-67
2023/09/23 11:42:47;;;;;;;6.40;4.20;;;16.50;99.90;;;;;;5093474;28;20059;-67
2023/09/23 11:45:15;;;;;;;7.65;3.47;;;16.60;99.90;;;;;;5093857;28;20067;-67
2023/09/23 11:47:42;;;;;;;6.78;3.58;;;16.60;99.90;;;;;;5093907;28;20056;-67
2023/09/23 11:50:10;;;;;;;4.20;3.20;;;16.60;99.90;;;;;;5093272;28;20047;-68
2023/09/23 11:52:37;;;;;;;6.93;3.10;;;16.70;99.90;;;;;;5094035;28;20502;-67
2023/09/23 11:55:05;;;;;;;4.15;2.08;;;16.90;99.90;;;;;;5093819;28;20043;-67
2023/09/23 11:57:32;;;;;;;3.20;1.70;;;16.90;99.90;;;;;;5090982;28;20059;-67
2023/09/23 11:59:59;;;;;;;3.40;1.20;;;16.90;99.90;;;;;;5093040;28;20230;-68
2023/09/23 12:02:28;;;;;;;3.33;0.90;;;16.80;99.90;;;;;;5093834;28;20415;-67
2023/09/23 12:04:55;;;;;;;2.00;1.00;;;16.70;99.90;;;;;;5093155;28;20059;-68
2023/09/23 12:07:23;;;;;;;3.72;1.10;;;16.60;99.90;;;;;;5093595;28;20051;-68
2023/09/23 12:09:50;;;;;;;2.33;1.10;;;16.40;99.90;;;;;;5111834;28;20047;-67
2023/09/23 12:12:18;;;;;;;4.00;1.30;;;16.40;99.90;;;;;;5093075;28;20050;-68
2023/09/23 12:14:45;;;;;;;2.85;1.15;;;16.30;99.90;;;;;;5093522;28;20039;-68
2023/09/23 12:17:14;;;;;;;2.47;1.20;;;16.30;99.90;;;;;;5082658;28;20044;-68
2023/09/23 12:19:44;;;;;;;3.97;1.00;;;16.30;99.90;;;;;;5087120;28;20082;-68
2023/09/23 12:22:12;;;;;;;2.57;1.10;;;16.20;99.90;;;;;;5089866;28;20043;-68
2023/09/23 12:24:39;;;;;;;1.67;0.82;;;16.20;99.90;;;;;;5087844;28;20306;-68
2023/09/23 12:27:06;;;;;;;2.20;1.00;;;16.10;99.90;;;;;;5093701;28;20044;-68
2023/09/23 12:29:33;;;;;;;2.25;0.82;;;16.10;99.90;;;;;;5092565;28;20051;-68
2023/09/23 12:32:00;;;;;;;3.00;1.10;;;16.20;99.90;;;;;;5089870;28;20051;-68
2023/09/23 12:34:27;;;;;;;1.40;0.80;;;16.40;99.90;;;;;;5090779;28;20490;-68
2023/09/23 12:36:56;;;;;;;1.38;0.80;;;16.70;99.90;;;;;;5093213;28;20491;-67
2023/09/23 12:39:23;;;;;;;2.40;0.80;;;17.80;99.90;;;;;;5088224;28;20044;-68
2023/09/23 12:41:50;;;;;;;1.77;0.82;;;19.20;99.90;;;;;;5096505;28;20179;-69
2023/09/23 12:44:17;;;;;;;2.17;0.88;;;20.40;99.90;;;;;;5092328;28;20039;-69
2023/09/23 12:46:44;;;;;;;1.85;0.70;;;21.50;99.90;;;;;;5111781;28;20443;-69
2023/09/23 12:49:11;;;;;;;3.45;0.70;;;22.20;99.90;;;;;;5111780;28;20459;-69